< < Back
Terminal Aerodrome Forecast


Current Version              Previous Versions:   1  2  3  4  5  6  7  8  9  

Terminal Aerodrome Forecast

977
FTUS42 KCAE 280906 AAA
TAFAGS
TAF AMD
KAGS 280906Z 2809/2906 VRB03KT P6SM SCT050
      TEMPO 2809/2811 3SM BR
     FM281400 05006KT P6SM BKN040
     FM290000 04005KT P6SM VCSH BKN035=



Latest METAR

294
SAUS70 KWBC 281300 RRC
MTRAGS
METAR KAGS 281253Z 01004KT 10SM CLR 21/17 A3014 RMK AO2 SLP205
T02060172


USA.gov is the U.S. government's official web portal to all federal, state and local government web resources and services.